Time;durP1;ratioP1;P1;durP2;ratioP2;P2;SDS_P1;SDS_P2;PMS_P1;PMS_P2;Temp;Humidity;BMP_temperature;BMP_pressure;BME280_temperature;BME280_humidity;BME280_pressure;Samples;Min_cycle;Max_cycle;Signal;HPM_P1;HPM_P2
2022/04/06 00:00:40;;;;;;;1.63;0.90;;;;;;;21.84;31.21;98807.69;5124536;28;20043;-60
2022/04/06 00:03:06;;;;;;;1.38;0.90;;;;;;;21.84;31.12;98802.13;5129098;28;20051;-59
2022/04/06 00:05:31;;;;;;;1.42;0.90;;;;;;;21.82;31.23;98796.16;5130796;28;20042;-59
2022/04/06 00:07:57;;;;;;;1.90;1.00;;;;;;;21.83;30.83;98796.94;5130017;28;20545;-60
2022/04/06 00:10:22;;;;;;;1.30;1.00;;;;;;;21.83;31.18;98791.38;5122207;28;20096;-59
2022/04/06 00:12:48;;;;;;;1.27;0.80;;;;;;;21.83;31.09;98785.81;5129871;28;20043;-59
2022/04/06 00:15:13;;;;;;;1.45;0.88;;;;;;;21.83;30.89;98794.97;5129817;28;20078;-59
2022/04/06 00:17:40;;;;;;;1.80;1.00;;;;;;;21.84;30.83;98788.19;5130219;28;20134;-60
2022/04/06 00:20:06;;;;;;;1.90;1.10;;;;;;;21.83;30.97;98783.81;5119519;28;20050;-60
2022/04/06 00:22:32;;;;;;;1.83;1.00;;;;;;;21.83;30.86;98781.03;5122598;28;20089;-59
2022/04/06 00:24:58;;;;;;;1.35;0.90;;;;;;;21.86;30.69;98783.06;5129472;27;20066;-59
2022/04/06 00:27:24;;;;;;;1.30;0.80;;;;;;;21.86;31.07;98776.66;5130320;28;20043;-59
2022/04/06 00:29:49;;;;;;;1.90;1.10;;;;;;;21.84;31.03;98771.50;5128927;28;20054;-59
2022/04/06 00:32:15;;;;;;;1.73;1.00;;;;;;;21.84;30.90;98765.13;5129821;28;20039;-59
2022/04/06 00:37:24;;;;;;;1.33;0.82;;;;;;;21.81;30.98;98766.72;5129659;28;20046;-59
2022/04/06 00:39:50;;;;;;;2.22;1.05;;;;;;;21.79;30.85;98763.56;5128358;28;20422;-59
2022/04/06 00:42:15;;;;;;;1.40;0.90;;;;;;;21.78;30.85;98761.16;5130124;28;20043;-67
2022/04/06 00:44:41;;;;;;;1.63;1.00;;;;;;;21.79;31.00;98760.78;5130196;28;20047;-67
2022/04/06 00:47:07;;;;;;;1.55;0.95;;;;;;;21.76;31.21;98752.41;5129600;28;20043;-67
2022/04/06 00:49:33;;;;;;;1.30;0.85;;;;;;;21.76;31.00;98761.56;5128308;28;20036;-67
2022/04/06 00:52:01;;;;;;;1.80;1.00;;;;;;;21.74;30.95;98763.94;5129670;28;20035;-67
2022/04/06 00:54:32;;;;;;;1.50;0.88;;;;;;;21.73;30.78;98758.78;5129413;28;20035;-67
2022/04/06 00:56:59;;;;;;;1.50;0.90;;;;;;;21.73;30.94;98758.78;5127812;28;20559;-67
2022/04/06 00:59:29;;;;;;;1.60;1.00;;;;;;;21.72;30.87;98763.56;5130213;28;20175;-67
2022/04/06 01:01:55;;;;;;;1.25;0.75;;;;;;;21.70;31.12;98752.00;5130155;28;20055;-67
2022/04/06 01:04:21;;;;;;;1.02;0.63;;;;;;;21.70;30.97;98754.78;5130003;28;20070;-67
2022/04/06 01:06:51;;;;;;;1.60;1.00;;;;;;;21.70;30.81;98755.56;5127293;28;20050;-67
2022/04/06 01:09:18;;;;;;;1.58;1.00;;;;;;;21.69;30.95;98748.41;5129363;28;20479;-67
2022/04/06 01:11:48;;;;;;;1.70;1.00;;;;;;;21.68;30.97;98749.63;5129659;28;20153;-67
2022/04/06 01:14:14;;;;;;;1.48;0.90;;;;;;;21.65;30.97;98742.06;5125100;28;20047;-67
2022/04/06 01:16:41;;;;;;;1.63;0.85;;;;;;;21.64;31.18;98740.47;5127185;28;20039;-67
2022/04/06 01:19:07;;;;;;;1.50;1.00;;;;;;;21.64;31.05;98743.25;5129844;28;20043;-67
2022/04/06 01:21:33;;;;;;;1.48;1.00;;;;;;;21.63;31.10;98741.66;5129376;28;20050;-67
2022/04/06 01:23:58;;;;;;;2.45;1.20;;;;;;;21.61;31.00;98740.47;5129330;28;20047;-67
2022/04/06 01:26:25;;;;;;;1.30;0.90;;;;;;;21.62;30.93;98736.50;5121555;28;20041;-67
2022/04/06 01:28:51;;;;;;;1.60;1.00;;;;;;;21.61;30.82;98740.47;5129803;28;20035;-67
2022/04/06 01:31:17;;;;;;;1.20;0.80;;;;;;;21.60;31.07;98741.66;5129586;28;20476;-61
2022/04/06 01:33:42;;;;;;;1.80;1.00;;;;;;;21.58;31.13;98733.72;5128566;28;20554;-59
2022/04/06 01:36:08;;;;;;;1.48;0.90;;;;;;;21.59;31.12;98737.28;5128689;27;20130;-59
2022/04/06 01:38:34;;;;;;;1.77;0.80;;;;;;;21.59;30.99;98731.72;5130884;27;20042;-60
2022/04/06 01:41:00;;;;;;;1.83;0.93;;;;;;;21.59;30.90;98728.94;5133134;28;20038;-60
2022/04/06 01:43:25;;;;;;;1.60;0.93;;;;;;;21.57;31.14;98718.19;5132036;28;20043;-60
2022/04/06 01:45:51;;;;;;;1.70;0.90;;;;;;;21.58;31.33;98722.59;5123221;28;20526;-59
2022/04/06 01:48:17;;;;;;;1.48;0.90;;;;;;;21.56;31.09;98719.38;5112730;28;20419;-59
2022/04/06 01:53:28;;;;;;;1.45;0.90;;;;;;;21.56;30.99;98716.59;5123522;28;20054;-59
2022/04/06 01:55:55;;;;;;;1.25;0.88;;;;;;;21.56;31.25;98715.81;5130608;28;20058;-59
2022/04/06 01:58:20;;;;;;;1.33;0.90;;;;;;;21.56;30.72;98713.81;5132478;28;20043;-60
2022/04/06 02:00:47;;;;;;;1.17;0.77;;;;;;;21.54;31.20;98712.63;5131768;28;20118;-59
2022/04/06 02:03:12;;;;;;;1.30;0.90;;;;;;;21.54;31.12;98712.63;5133085;28;20054;-59
2022/04/06 02:05:38;;;;;;;1.42;0.90;;;;;;;21.53;30.81;98711.84;5131480;28;20039;-59
2022/04/06 02:08:03;;;;;;;1.63;1.08;;;;;;;21.54;30.81;98707.06;5131718;28;20383;-60
2022/04/06 02:10:29;;;;;;;1.38;0.90;;;;;;;21.55;30.76;98700.31;5132221;28;20039;-59
2022/04/06 02:12:56;;;;;;;1.27;0.80;;;;;;;21.55;31.01;98703.09;5132607;28;20047;-59
2022/04/06 02:15:24;;;;;;;1.40;0.88;;;;;;;21.53;30.70;98697.13;5128058;28;20055;-59
2022/04/06 02:17:50;;;;;;;1.27;0.85;;;;;;;21.55;30.94;98711.44;5131793;28;20047;-60
2022/04/06 02:20:15;;;;;;;1.40;0.90;;;;;;;21.53;30.71;98700.72;5113334;28;20043;-59
2022/04/06 02:22:42;;;;;;;1.33;0.82;;;;;;;21.52;30.81;98707.47;5132355;28;20055;-59
2022/04/06 02:25:08;;;;;;;1.50;0.90;;;;;;;21.53;31.03;98706.28;5130991;28;20043;-59
2022/04/06 02:27:33;;;;;;;1.25;0.93;;;;;;;21.54;30.80;98698.72;5131842;28;20031;-60
2022/04/06 02:29:59;;;;;;;1.60;1.02;;;;;;;21.52;30.96;98693.56;5132101;28;20057;-60
2022/04/06 02:32:24;;;;;;;1.27;0.80;;;;;;;21.52;31.08;98696.34;5132137;28;20376;-59
2022/04/06 02:34:50;;;;;;;1.33;0.70;;;;;;;21.51;31.00;98703.09;5118474;28;20571;-59
2022/04/06 02:37:15;;;;;;;1.52;0.90;;;;;;;21.52;30.83;98701.13;5130864;28;20045;-59
2022/04/06 02:39:40;;;;;;;1.58;0.90;;;;;;;21.52;30.92;98698.34;5132096;28;20561;-59
2022/04/06 02:42:07;;;;;;;1.10;0.80;;;;;;;21.53;31.13;98697.13;5131111;28;20043;-59
2022/04/06 02:44:33;;;;;;;1.38;0.80;;;;;;;21.52;31.06;98692.78;5123623;28;20046;-60
2022/04/06 02:46:58;;;;;;;1.48;0.90;;;;;;;21.51;30.96;98691.97;5131680;27;20075;-60
2022/04/06 02:49:24;;;;;;;1.17;0.88;;;;;;;21.50;30.87;98695.94;5131726;28;20074;-67
2022/04/06 02:51:49;;;;;;;1.85;0.95;;;;;;;21.51;30.72;98696.75;5131281;28;20039;-67
2022/04/06 02:54:15;;;;;;;1.35;0.80;;;;;;;21.49;30.74;98697.13;5130328;28;20467;-67
2022/04/06 02:56:41;;;;;;;1.20;0.80;;;;;;;21.49;30.80;98699.91;5131666;28;20134;-67
2022/04/06 02:59:07;;;;;;;1.40;0.80;;;;;;;21.50;30.81;98695.13;5131762;28;20519;-67
2022/04/06 03:01:32;;;;;;;1.63;0.82;;;;;;;21.48;30.93;98697.53;5131106;28;20128;-67
2022/04/06 03:03:58;;;;;;;1.92;0.90;;;;;;;21.50;30.69;98692.34;5124595;28;20551;-66
2022/04/06 03:06:23;;;;;;;1.40;0.80;;;;;;;21.48;30.88;98691.97;5127967;28;20039;-67
2022/04/06 03:08:49;;;;;;;1.58;0.90;;;;;;;21.46;30.88;98689.59;5131831;28;20454;-67
2022/04/06 03:11:14;;;;;;;1.60;1.00;;;;;;;21.47;30.71;98685.59;5131521;28;20555;-67
2022/04/06 03:13:40;;;;;;;1.50;0.90;;;;;;;21.46;30.84;98688.78;5129725;28;20388;-67
2022/04/06 03:16:06;;;;;;;1.38;0.80;;;;;;;21.45;30.55;98684.41;5130176;28;20037;-66
2022/04/06 03:18:31;;;;;;;1.70;0.95;;;;;;;21.43;30.74;98685.63;5131194;28;20039;-66
2022/04/06 03:20:57;;;;;;;1.40;0.90;;;;;;;21.46;30.56;98680.44;5131474;28;20046;-67
2022/04/06 03:23:22;;;;;;;1.67;1.00;;;;;;;21.42;30.83;98678.44;5129919;28;20062;-67
2022/04/06 03:25:48;;;;;;;1.48;1.00;;;;;;;21.43;30.59;98680.06;5129600;28;20050;-60
2022/04/06 03:28:14;;;;;;;1.45;0.90;;;;;;;21.43;30.92;98680.06;5131503;28;20126;-60
2022/04/06 03:30:40;;;;;;;1.33;0.90;;;;;;;21.46;30.51;98680.44;5131034;28;20419;-59
2022/04/06 03:33:06;;;;;;;1.40;0.82;;;;;;;21.45;30.88;98673.28;5130282;28;20039;-59
2022/04/06 03:35:32;;;;;;;1.20;0.80;;;;;;;21.43;30.61;98666.13;5114330;28;20051;-59
2022/04/06 03:37:58;;;;;;;1.80;1.05;;;;;;;21.45;30.64;98659.38;5130789;28;20043;-59
2022/04/06 03:40:23;;;;;;;1.83;1.02;;;;;;;21.43;30.60;98666.13;5131097;28;20035;-59
2022/04/06 03:42:49;;;;;;;1.77;0.95;;;;;;;21.42;30.81;98658.97;5130446;28;20134;-59
2022/04/06 03:45:14;;;;;;;1.50;0.88;;;;;;;21.42;30.87;98658.16;5129033;28;20399;-59
2022/04/06 03:47:42;;;;;;;1.85;1.05;;;;;;;21.41;30.78;98657.38;5130487;28;20059;-60
2022/04/06 03:50:08;;;;;;;1.63;1.00;;;;;;;21.39;30.75;98657.00;5130905;28;20039;-59
2022/04/06 03:52:33;;;;;;;1.67;1.08;;;;;;;21.39;30.53;98650.63;5130327;28;20031;-59
2022/04/06 03:54:59;;;;;;;1.73;0.90;;;;;;;21.40;30.84;98655.78;5129325;28;20051;-59
2022/04/06 03:57:25;;;;;;;1.10;0.80;;;;;;;21.33;30.61;98639.09;5130955;28;20043;-59
2022/04/06 03:59:51;;;;;;;1.58;1.00;;;;;;;21.39;30.54;98651.41;5129256;27;20125;-59
2022/04/06 04:02:16;;;;;;;1.42;0.90;;;;;;;21.38;30.60;98644.28;5118660;28;20040;-59
2022/04/06 04:04:41;;;;;;;1.60;1.10;;;;;;;21.40;30.84;98649.44;5130811;28;20134;-59
2022/04/06 04:07:08;;;;;;;1.35;0.80;;;;;;;21.39;30.67;98651.41;5131028;28;20043;-59
2022/04/06 04:09:34;;;;;;;1.30;0.90;;;;;;;21.38;30.74;98644.28;5130029;28;20035;-59
2022/04/06 04:12:00;;;;;;;1.17;0.85;;;;;;;21.39;30.63;98645.84;5126983;28;20035;-67
2022/04/06 04:14:25;;;;;;;1.52;1.02;;;;;;;21.39;30.80;98645.84;5130149;28;20058;-67
2022/04/06 04:16:51;;;;;;;2.20;1.30;;;;;;;21.38;30.71;98644.28;5130743;28;20441;-67
2022/04/06 04:19:17;;;;;;;1.35;0.85;;;;;;;21.39;30.55;98651.41;5130787;28;20406;-67
2022/04/06 04:21:43;;;;;;;1.77;1.10;;;;;;;21.40;30.86;98644.66;5129502;28;20193;-67
2022/04/06 04:24:09;;;;;;;1.33;0.90;;;;;;;21.41;30.74;98642.66;5129773;28;20180;-67
2022/04/06 04:26:36;;;;;;;1.25;0.80;;;;;;;21.91;30.20;98645.41;5130453;28;20130;-67
2022/04/06 04:29:05;;;;;;;1.42;1.00;;;;;;;22.70;29.01;98637.59;5130707;28;20039;-67
2022/04/06 04:31:31;;;;;;;1.15;0.85;;;;;;;23.54;27.89;98634.66;5130642;28;20043;-67
2022/04/06 04:33:57;;;;;;;1.48;0.80;;;;;;;23.75;27.50;98634.47;5129070;28;20507;-67
2022/04/06 04:36:23;;;;;;;1.60;1.00;;;;;;;23.33;28.04;98638.41;5129531;28;20104;-67
2022/04/06 04:38:49;;;;;;;1.50;0.90;;;;;;;22.95;28.41;98637.50;5129983;28;20044;-67
2022/04/06 04:41:16;;;;;;;1.02;0.70;;;;;;;22.65;28.83;98630.47;5130341;28;20135;-67
2022/04/06 04:43:42;;;;;;;1.77;1.00;;;;;;;22.41;29.30;98640.50;5128492;28;20047;-66
2022/04/06 04:46:07;;;;;;;1.58;0.93;;;;;;;22.22;29.35;98638.22;5129755;28;20038;-67
2022/04/06 04:48:33;;;;;;;1.50;0.80;;;;;;;22.08;29.89;98638.22;5130227;28;20078;-67
2022/04/06 04:50:59;;;;;;;1.55;0.93;;;;;;;21.98;29.94;98642.59;5128884;28;20036;-60
2022/04/06 04:53:25;;;;;;;1.50;1.00;;;;;;;21.89;29.87;98637.47;5129303;28;20040;-59
2022/04/06 04:55:50;;;;;;;1.73;1.23;;;;;;;21.83;30.24;98647.41;5129505;28;20043;-59
2022/04/06 04:58:16;;;;;;;1.30;0.82;;;;;;;21.76;30.09;98647.41;5130037;28;20039;-59
2022/04/06 05:00:42;;;;;;;1.30;0.90;;;;;;;21.75;30.03;98643.06;5126838;28;20040;-60
2022/04/06 05:03:08;;;;;;;1.60;1.00;;;;;;;21.71;30.28;98636.69;5130428;28;20057;-59
2022/04/06 05:05:39;;;;;;;1.35;0.93;;;;;;;21.68;30.51;98646.63;5129313;28;20045;-60
2022/04/06 05:08:06;;;;;;;1.42;0.82;;;;;;;21.65;30.25;98636.31;5129628;28;20035;-59
2022/04/06 05:10:31;;;;;;;1.33;0.80;;;;;;;21.63;30.41;98643.47;5127576;27;20092;-60
2022/04/06 05:12:57;;;;;;;1.23;0.77;;;;;;;21.62;30.30;98641.88;5118374;28;20047;-59
2022/04/06 05:15:22;;;;;;;1.30;0.90;;;;;;;21.60;30.41;98635.91;5115271;28;20931;-59
2022/04/06 05:17:48;;;;;;;1.50;0.90;;;;;;;21.61;30.33;98634.72;5133547;28;20050;-59
2022/04/06 05:20:13;;;;;;;1.67;1.00;;;;;;;21.58;30.22;98638.31;5132786;28;20042;-60
2022/04/06 05:22:39;;;;;;;1.77;1.10;;;;;;;21.59;30.54;98637.91;5132492;28;20130;-59
2022/04/06 05:25:09;;;;;;;1.40;0.80;;;;;;;21.59;30.69;98639.91;5133337;28;20051;-61
2022/04/06 05:27:46;;;;;;;1.45;0.95;;;;;;;21.57;30.31;98639.47;5116838;28;20055;-60
2022/04/06 05:30:13;;;;;;;1.42;0.98;;;;;;;21.54;30.69;98638.31;5132472;28;20091;-59
2022/04/06 05:32:39;;;;;;;1.67;1.00;;;;;;;21.58;30.53;98643.88;5132479;28;20511;-59
2022/04/06 05:35:06;;;;;;;1.50;0.90;;;;;;;21.58;30.54;98646.66;5131626;28;20083;-59
2022/04/06 05:37:33;;;;;;;1.40;0.90;;;;;;;21.57;30.58;98636.69;5132719;28;20126;-59
2022/04/06 05:40:00;;;;;;;2.03;1.20;;;;;;;21.57;30.70;98648.63;5132979;28;20085;-59
2022/04/06 05:42:26;;;;;;;1.70;1.10;;;;;;;21.56;30.53;98644.25;5132225;28;20047;-59
2022/04/06 05:44:51;;;;;;;1.70;1.02;;;;;;;21.55;30.68;98644.66;5133029;28;20092;-59
2022/04/06 05:47:17;;;;;;;1.45;0.90;;;;;;;21.57;30.48;98645.84;5132763;28;20415;-60
2022/04/06 05:49:43;;;;;;;2.00;1.30;;;;;;;21.59;30.73;98642.69;5133111;28;20408;-59
2022/04/06 05:52:09;;;;;;;1.52;0.90;;;;;;;21.60;30.59;98655.41;5130634;28;20526;-59
2022/04/06 05:54:35;;;;;;;5.00;0.90;;;;;;;21.61;30.59;98651.41;5132679;28;20064;-59
2022/04/06 05:57:01;;;;;;;1.50;0.80;;;;;;;21.61;30.55;98645.84;5132700;28;20039;-59
2022/04/06 05:59:26;;;;;;;3.45;1.00;;;;;;;21.62;30.54;98653.78;5132115;28;20411;-59
2022/04/06 06:01:52;;;;;;;1.58;0.95;;;;;;;21.60;30.68;98650.63;5131170;28;20384;-59
2022/04/06 06:04:17;;;;;;;1.83;0.90;;;;;;;21.63;30.57;98649.03;5129728;28;20069;-59
2022/04/06 06:06:42;;;;;;;1.45;0.98;;;;;;;21.62;30.79;98648.22;5123307;28;20451;-59
2022/04/06 06:09:08;;;;;;;1.33;0.82;;;;;;;21.64;30.70;98661.75;5131758;28;20176;-59
2022/04/06 06:11:33;;;;;;;1.45;0.90;;;;;;;21.63;30.33;98651.81;5130281;28;20450;-59
2022/04/06 06:13:58;;;;;;;2.83;1.20;;;;;;;21.63;30.26;98655.38;5123917;28;20503;-59
2022/04/06 06:16:24;;;;;;;1.48;0.95;;;;;;;21.63;30.32;98652.59;5119725;28;20031;-65
2022/04/06 06:18:50;;;;;;;2.33;1.25;;;;;;;21.63;30.23;98657.38;5130483;28;20039;-65
2022/04/06 06:21:15;;;;;;;1.65;0.90;;;;;;;21.64;30.54;98650.59;5112412;28;20054;-65
2022/04/06 06:23:41;;;;;;;1.85;1.10;;;;;;;21.63;30.33;98654.59;5131286;27;20495;-64
2022/04/06 06:26:06;;;;;;;2.63;1.17;;;;;;;21.60;30.40;98647.06;5132150;28;20047;-64
2022/04/06 06:28:31;;;;;;;1.70;1.08;;;;;;;21.65;30.07;98655.00;5132031;28;20035;-64
2022/04/06 06:30:57;;;;;;;2.00;1.13;;;;;;;21.66;29.98;98659.38;5131191;28;20586;-65
2022/04/06 06:33:22;;;;;;;2.05;1.00;;;;;;;21.64;30.06;98661.75;5131587;28;20088;-65
2022/04/06 06:35:47;;;;;;;1.58;0.95;;;;;;;21.65;30.29;98657.78;5132051;28;20092;-65
2022/04/06 06:38:13;;;;;;;1.75;1.10;;;;;;;21.66;30.02;98659.38;5131721;28;20590;-65
2022/04/06 06:40:38;;;;;;;1.52;0.95;;;;;;;21.67;30.29;98658.19;5131927;28;20043;-64
2022/04/06 06:43:04;;;;;;;1.85;1.15;;;;;;;21.65;29.88;98655.00;5128367;28;20039;-65
2022/04/06 06:45:29;;;;;;;1.98;1.15;;;;;;;21.65;29.94;98649.44;5115062;28;20039;-64
2022/04/06 06:47:55;;;;;;;1.88;1.15;;;;;;;21.65;29.71;98650.22;5131423;28;20513;-64
2022/04/06 06:50:20;;;;;;;3.50;1.10;;;;;;;21.63;30.03;98643.47;5121456;28;20053;-65
2022/04/06 06:52:46;;;;;;;3.20;1.15;;;;;;;21.63;29.81;98647.03;5123968;28;20112;-64
2022/04/06 06:55:12;;;;;;;1.65;1.10;;;;;;;21.63;29.86;98643.47;5117779;28;20047;-64
2022/04/06 06:57:38;;;;;;;1.55;1.02;;;;;;;21.64;29.91;98647.81;5119597;28;20054;-64
2022/04/06 07:00:04;;;;;;;1.77;1.10;;;;;;;21.62;30.16;98639.09;5121827;28;20126;-64
2022/04/06 07:02:30;;;;;;;1.73;1.10;;;;;;;21.61;30.07;98638.28;5111283;28;20137;-64
2022/04/06 07:04:55;;;;;;;2.28;1.30;;;;;;;21.62;30.09;98639.88;5108061;28;20911;-65
2022/04/06 07:07:21;;;;;;;2.25;1.23;;;;;;;21.61;30.30;98635.50;5108576;28;20192;-64
2022/04/06 07:09:46;;;;;;;1.88;1.15;;;;;;;21.62;30.12;98631.53;5113957;27;20043;-69
2022/04/06 07:12:11;;;;;;;1.80;1.20;;;;;;;21.64;30.39;98639.47;5105005;27;20035;-67
2022/04/06 07:14:37;;;;;;;2.03;1.30;;;;;;;21.64;30.44;98637.47;5116586;27;20055;-64
2022/04/06 07:17:03;;;;;;;4.13;1.10;;;;;;;21.67;30.81;98630.34;5115874;27;20050;-70
2022/04/06 07:19:29;;;;;;;2.53;1.30;;;;;;;21.66;31.00;98625.97;5117431;27;20055;-65
2022/04/06 07:21:55;;;;;;;1.90;1.17;;;;;;;21.69;30.80;98625.16;5113963;27;20044;-66
2022/04/06 07:24:20;;;;;;;2.42;1.40;;;;;;;21.71;31.18;98626.34;5119904;27;20043;-66
2022/04/06 07:26:45;;;;;;;3.05;1.27;;;;;;;21.70;31.57;98621.19;5116788;27;20096;-65
2022/04/06 07:29:15;;;;;;;1.90;1.25;;;;;;;21.72;31.30;98621.59;5124719;27;20046;-67
2022/04/06 07:31:43;;;;;;;2.42;1.30;;;;;;;21.69;31.52;98619.59;5119933;28;20038;-65
2022/04/06 07:34:09;;;;;;;2.15;1.23;;;;;;;21.71;31.61;98618.00;5113357;27;20051;-64
2022/04/06 07:36:35;;;;;;;2.20;1.30;;;;;;;21.71;31.83;98618.00;5109860;28;20043;-63
2022/04/06 07:39:02;;;;;;;1.60;1.10;;;;;;;21.74;31.95;98610.06;5116462;28;20035;-63
2022/04/06 07:41:31;;;;;;;3.30;1.40;;;;;;;21.76;31.33;98613.22;5111195;28;20039;-66
2022/04/06 07:43:58;;;;;;;2.40;1.35;;;;;;;21.79;31.85;98615.19;5114688;27;20082;-65
2022/04/06 07:46:23;;;;;;;3.05;1.40;;;;;;;21.75;31.59;98611.66;5080262;28;20767;-65
2022/04/06 07:48:49;;;;;;;2.22;1.50;;;;;;;21.76;31.92;98608.44;5111148;27;20048;-62
2022/04/06 07:51:15;;;;;;;3.08;1.48;;;;;;;21.76;31.85;98608.44;5117889;27;20043;-63
2022/04/06 07:53:40;;;;;;;1.80;1.10;;;;;;;21.79;31.84;98609.63;5113207;27;20047;-62
2022/04/06 07:56:06;;;;;;;2.20;1.20;;;;;;;21.79;31.61;98612.41;5111735;27;20395;-61
2022/04/06 07:58:32;;;;;;;2.00;1.30;;;;;;;21.80;31.81;98612.03;5112666;28;20044;-63
2022/04/06 08:00:58;;;;;;;2.28;1.30;;;;;;;21.81;31.64;98610.84;5113009;27;20537;-61
2022/04/06 08:03:23;;;;;;;2.03;1.30;;;;;;;21.84;31.93;98607.25;5109834;27;20039;-62
2022/04/06 08:05:50;;;;;;;2.60;1.50;;;;;;;21.84;31.68;98606.44;5110102;28;20184;-62
2022/04/06 08:08:15;;;;;;;1.95;1.20;;;;;;;21.86;31.75;98601.25;5114256;28;20043;-64
2022/04/06 08:10:41;;;;;;;2.13;1.38;;;;;;;21.87;31.66;98592.53;5105984;27;20062;-65
2022/04/06 08:13:06;;;;;;;3.97;1.48;;;;;;;21.91;31.60;98598.06;5109860;27;20080;-63
2022/04/06 08:15:32;;;;;;;2.55;1.60;;;;;;;21.88;31.68;98591.34;5082050;28;20088;-64
2022/04/06 08:17:57;;;;;;;2.10;1.30;;;;;;;21.90;31.90;98596.50;5108214;27;20035;-62
2022/04/06 08:20:23;;;;;;;2.40;1.33;;;;;;;21.92;31.62;98592.09;5112483;27;20040;-63
2022/04/06 08:22:50;;;;;;;2.17;1.30;;;;;;;21.91;31.44;98587.72;5107823;27;20079;-62
2022/04/06 08:25:16;;;;;;;6.35;1.60;;;;;;;21.93;31.62;98593.72;5113591;27;20075;-61
2022/04/06 08:27:42;;;;;;;3.47;1.50;;;;;;;21.94;31.40;98588.94;5112499;28;20050;-60
2022/04/06 08:30:10;;;;;;;2.15;1.40;;;;;;;21.93;31.42;98585.38;5113887;28;20039;-64
2022/04/06 08:32:36;;;;;;;2.47;1.55;;;;;;;21.96;31.40;98592.91;5109383;27;20047;-65
2022/04/06 08:35:01;;;;;;;2.17;1.30;;;;;;;21.98;31.34;98587.72;5108839;28;20107;-63
2022/04/06 08:37:30;;;;;;;3.22;1.50;;;;;;;21.99;31.51;98588.50;5109299;28;20049;-61
2022/04/06 08:39:55;;;;;;;1.90;1.23;;;;;;;21.99;31.41;98588.50;5109664;27;21293;-64
2022/04/06 08:42:21;;;;;;;3.00;1.60;;;;;;;21.99;31.37;98582.94;5103227;28;20609;-62
2022/04/06 08:44:46;;;;;;;2.30;1.42;;;;;;;22.01;31.54;98579.78;5108151;27;20035;-63
2022/04/06 08:47:13;;;;;;;2.80;1.40;;;;;;;22.00;31.54;98581.72;5106609;28;20122;-63
2022/04/06 08:49:41;;;;;;;2.20;1.40;;;;;;;21.98;31.60;98573.00;5110020;27;20419;-62
2022/04/06 08:52:08;;;;;;;2.83;1.70;;;;;;;21.96;31.40;98576.19;5111191;28;20039;-63
2022/04/06 08:54:33;;;;;;;4.03;2.00;;;;;;;21.98;31.10;98578.56;5108618;27;20051;-63
2022/04/06 08:56:59;;;;;;;4.05;2.30;;;;;;;21.92;31.12;98577.38;5113074;28;20038;-62
2022/04/06 08:59:24;;;;;;;4.22;2.10;;;;;;;21.90;31.17;98579.78;5115506;27;20107;-62
2022/04/06 09:01:53;;;;;;;3.03;1.85;;;;;;;21.87;31.33;98570.25;5116332;28;20063;-64
2022/04/06 09:04:20;;;;;;;6.38;1.88;;;;;;;21.87;31.17;98575.81;5114282;28;20452;-62
2022/04/06 09:06:46;;;;;;;2.35;1.67;;;;;;;21.88;31.40;98576.63;5114927;27;20130;-62
2022/04/06 09:09:20;;;;;;;2.72;1.60;;;;;;;21.90;31.17;98574.22;5116747;28;20087;-60
2022/04/06 09:11:46;;;;;;;3.00;1.60;;;;;;;21.90;31.55;98569.44;5110141;28;20071;-61
2022/04/06 09:14:12;;;;;;;2.95;1.58;;;;;;;21.88;31.36;98571.84;5114209;28;20138;-60
2022/04/06 09:16:38;;;;;;;2.75;1.48;;;;;;;21.86;31.45;98557.53;5114817;28;20040;-60
2022/04/06 09:19:14;;;;;;;3.05;1.88;;;;;;;21.88;31.53;98565.47;5111434;28;20525;-61
2022/04/06 09:21:44;;;;;;;2.65;1.67;;;;;;;21.88;31.35;98562.69;5113794;27;20044;-60
2022/04/06 09:24:14;;;;;;;2.42;1.60;;;;;;;21.87;31.72;98564.69;5106515;27;20039;-61
2022/04/06 09:26:39;;;;;;;2.20;1.33;;;;;;;21.85;31.54;98561.50;5094030;28;20051;-60
2022/04/06 09:29:06;;;;;;;2.83;1.60;;;;;;;21.80;31.46;98550.78;5100974;28;20069;-61
2022/04/06 09:31:38;;;;;;;2.45;1.40;;;;;;;21.81;31.68;98555.16;5102110;28;20051;-60
2022/04/06 09:34:04;;;;;;;4.05;1.30;;;;;;;21.83;31.65;98546.41;5119944;28;20807;-60
2022/04/06 09:36:31;;;;;;;2.58;1.60;;;;;;;21.82;31.93;98542.03;5118227;28;20462;-61
2022/04/06 09:38:57;;;;;;;2.00;1.40;;;;;;;21.86;31.52;98551.16;5110543;27;20072;-61
2022/04/06 09:41:24;;;;;;;2.15;1.33;;;;;;;21.83;31.50;98538.84;5115938;27;20130;-60
2022/04/06 09:43:51;;;;;;;2.38;1.45;;;;;;;21.82;31.73;98533.69;5119566;28;20044;-60
2022/04/06 09:49:10;;;;;;;1.92;1.33;;;;;;;21.83;31.77;98536.06;5115384;27;20085;-61
2022/04/06 09:51:40;;;;;;;2.25;1.25;;;;;;;21.82;32.13;98534.47;5118363;28;20039;-62
2022/04/06 09:54:07;;;;;;;2.90;1.50;;;;;;;21.87;32.03;98530.50;5116716;28;20158;-60
2022/04/06 09:56:35;;;;;;;2.55;1.30;;;;;;;21.87;31.69;98530.50;5113286;27;20051;-61
2022/04/06 09:59:02;;;;;;;2.65;1.45;;;;;;;21.85;31.87;98519.75;5114686;27;20054;-61
2022/04/06 10:01:34;;;;;;;2.15;1.23;;;;;;;21.88;32.02;98513.38;5112095;28;20047;-63
2022/04/06 10:04:07;;;;;;;1.73;1.15;;;;;;;21.93;32.06;98509.38;5114213;28;20043;-61
2022/04/06 10:06:38;;;;;;;2.10;1.35;;;;;;;21.95;31.91;98498.63;5113443;28;20521;-62
2022/04/06 10:09:06;;;;;;;2.15;1.35;;;;;;;21.94;32.18;98499.84;5119174;28;20048;-61
2022/04/06 10:11:33;;;;;;;2.00;1.27;;;;;;;21.91;31.84;98497.84;5119160;27;20039;-61
2022/04/06 10:14:00;;;;;;;2.10;1.20;;;;;;;21.90;32.21;98496.25;5111841;27;20721;-62
2022/04/06 10:16:26;;;;;;;2.72;1.20;;;;;;;21.90;32.11;98485.91;5117390;28;20122;-63
2022/04/06 10:18:54;;;;;;;1.50;1.00;;;;;;;21.91;32.04;98481.16;5119460;28;20126;-63
2022/04/06 10:21:59;;;;;;;1.90;1.20;;;;;;;21.89;32.07;98480.75;5113305;28;20047;-63
2022/04/06 10:24:32;;;;;;;1.83;1.15;;;;;;;21.89;31.99;98472.41;5112097;28;20104;-63
2022/04/06 10:27:01;;;;;;;1.58;1.05;;;;;;;21.88;32.23;98477.19;5111248;27;20038;-63
2022/04/06 10:29:26;;;;;;;1.60;1.10;;;;;;;21.89;31.99;98464.84;5113175;27;20079;-63
2022/04/06 10:31:52;;;;;;;1.90;1.20;;;;;;;21.89;31.93;98461.28;5115137;28;20733;-64
2022/04/06 10:34:27;;;;;;;1.75;0.90;;;;;;;21.88;32.03;98457.69;5115695;27;20051;-64
2022/04/06 10:37:05;;;;;;;1.98;1.25;;;;;;;21.88;31.99;98451.34;5110714;28;20047;-63
2022/04/06 10:39:31;;;;;;;1.52;1.00;;;;;;;21.90;32.18;98458.09;5112750;28;20074;-64
2022/04/06 10:42:37;;;;;;;1.33;0.90;;;;;;;21.88;32.03;98451.34;5113019;28;20039;-64
2022/04/06 10:45:05;;;;;;;1.65;1.00;;;;;;;21.90;32.35;98444.16;5115067;28;20910;-63
2022/04/06 10:47:32;;;;;;;1.45;0.95;;;;;;;21.90;32.09;98444.16;5116966;28;20066;-64
2022/04/06 10:50:13;;;;;;;1.27;0.80;;;;;;;21.90;32.39;98435.81;5112271;28;20035;-64
2022/04/06 10:52:39;;;;;;;1.30;0.90;;;;;;;21.90;32.24;98423.88;5119302;28;20047;-63
2022/04/06 10:55:20;;;;;;;1.75;1.17;;;;;;;21.92;32.52;98425.06;5111971;28;20104;-64
2022/04/06 10:58:01;;;;;;;1.40;0.90;;;;;;;21.92;32.45;98422.25;5107759;28;20054;-64
2022/04/06 11:00:28;;;;;;;1.42;0.95;;;;;;;21.93;32.45;98415.53;5112876;28;20039;-63
2022/04/06 11:02:54;;;;;;;1.48;0.93;;;;;;;21.95;32.63;98413.13;5110114;28;20036;-64
2022/04/06 11:05:43;;;;;;;2.67;0.90;;;;;;;21.97;32.60;98407.94;5107827;28;20443;-64
2022/04/06 11:11:32;;;;;;;1.85;1.00;;;;;;;21.99;32.60;98408.31;5117633;28;20050;-64
2022/04/06 11:13:58;;;;;;;1.38;0.93;;;;;;;21.96;32.50;98392.41;5111374;28;20126;-63
2022/04/06 11:16:44;;;;;;;1.60;1.00;;;;;;;21.96;32.58;98395.22;5115761;28;20035;-64
2022/04/06 11:19:10;;;;;;;1.63;0.98;;;;;;;21.94;32.98;98386.47;5114988;28;20069;-64
2022/04/06 11:21:45;;;;;;;1.48;0.90;;;;;;;21.95;32.75;98376.91;5118210;28;20140;-64
2022/04/06 11:24:15;;;;;;;1.17;0.80;;;;;;;21.98;32.90;98380.88;5110935;28;20042;-64
2022/04/06 11:26:41;;;;;;;1.40;0.90;;;;;;;21.96;32.84;98374.94;5110430;28;20050;-63
2022/04/06 11:29:06;;;;;;;1.40;0.98;;;;;;;21.95;33.08;98376.13;5109143;28;20633;-64
2022/04/06 11:31:32;;;;;;;1.30;0.85;;;;;;;21.99;32.94;98372.09;5112892;28;20048;-63
2022/04/06 11:33:57;;;;;;;1.40;0.80;;;;;;;22.01;32.74;98368.94;5114957;28;20485;-64
2022/04/06 11:36:23;;;;;;;1.92;0.80;;;;;;;22.01;33.09;98368.94;5113758;28;20402;-64
2022/04/06 11:38:49;;;;;;;2.00;1.00;;;;;;;22.03;33.09;98358.19;5113084;28;20051;-63
2022/04/06 11:41:15;;;;;;;1.23;0.90;;;;;;;22.04;33.43;98356.19;5113722;28;20054;-63
2022/04/06 11:43:42;;;;;;;1.40;0.90;;;;;;;22.19;33.34;98349.31;5112935;28;20407;-63